Joaquín Sosa

Scout - Gimnasia La Plata
22 Feb 2028
Dienstag
Verarbeitung

Persönlichkeit

Anpassungsfähigkeit (3) Ehrgeiz (15) Kontroverse (8) Loyalität (12) Druck (4) Professionalität (10) Fairness (11) Temperament (13)

Profil

Trainerstil Demokratisch
Lizenz Nationale B
Entschlossenheit 12
Menschenführung 12
Motivation 9
Disziplin 7
Arbeitszufriedenheit
100%
Ermüdung
0%
Rolle Scout
Gehalt 89.5K p/W
Vertrag 14.03.2028

Leistung

Verhalten Gut
Trainingseffektivität
29%
Spielerentwicklung
40%
Verletzungsprävention
40%
Taktische Umsetzung
20%

Letzte Ereignisse

Vertragsverhandlung begonnen jetzt
Nahm an einer Scouting-Besprechung teil 7T her
Vertragsverhandlung begonnen 7T her
Vertragsverhandlung begonnen 7T her
Vertragsverhandlung begonnen 7T her
Vertragsverhandlung begonnen 7T her
Vertragsverhandlung begonnen 7T her
Vertragsverhandlung begonnen 7T her

Aktuell beobachtet

98
Spieler Verein Status Fähigkeit Vertrauen Beobachtet Zuletzt beobachtet Letzte Stimme
Felipe Serrés Wanderers Aktiv 85 / 93 40% 4 28.11.2027 -
Mateus Mané Manchester United Aktiv 128 / 161 40% 3 28.11.2027 -
Jean Galindo Imotski Aktiv 73 / 93 40% 3 26.11.2027 -
Luighi Palmeiras Aktiv 106 / 107 40% 2 26.11.2027 -
Dylan Cabral Arsenal Aktiv 108 / 109 40% 4 24.11.2027 -
Ryan Oné Sheffield United Aktiv 122 / 143 40% 1 24.11.2027 -
Luis Yanes Real Cartagena Aktiv 86 / 100 40% 2 23.11.2027 -
Álex Marchal Real Sociedad Aktiv 120 / 135 40% 2 23.11.2027 -
Agustín Ruberto River Plate Aktiv 128 / 134 40% 1 23.11.2027 -
Lucas Camejo River Plate Aktiv 92 / 79 40% 1 23.11.2027 -
Matías Canedo Rampla Juniors Aktiv 96 / 86 40% 1 20.11.2027 -
Elijas Gunnergård Ortan Atvidaberg Aktiv 85 / 77 40% 1 18.11.2027 -
Felipe Karabulut Gimnasia y Tiro Aktiv 84 / 104 40% 2 16.11.2027 -
Octávio Silva Artigas Aktiv 80 / 75 40% 2 16.11.2027 -
Musa Malik Ikorodu City Aktiv 89 / 112 40% 3 15.11.2027 -
Ramiro Jara Racing Aktiv 75 / 84 40% 2 13.11.2027 -
Giancarlo García Deportivo Pereira Aktiv 84 / 88 40% 2 13.11.2027 -
Facundo Martínez Montevideo City Torque Aktiv 79 / 85 40% 4 10.11.2027 -
Amaury Morales Pumas UNAM Aktiv 101 / 132 40% 3 07.11.2027 -
Mamadou Doumbia FC Lorient Aktiv 114 / 114 40% 1 07.11.2027 -
Andrés Monsalve Leones Aktiv 87 / 92 40% 3 06.11.2027 -
D'Hidier Pereira San Marcos de Arica Aktiv 89 / 86 40% 1 05.11.2027 -
Chimobi Igwilo Rangers International Aktiv 79 / 83 40% 3 04.11.2027 -
Tiziano Cabrera Central Norte Aktiv 99 / 88 40% 1 03.11.2027 -
Mikkel Hope Haugesund Aktiv 86 / 91 40% 1 03.11.2027 -
Onuorah Onyedika Kun Khalifat Aktiv 67 / 104 40% 2 30.10.2027 -
Joel Ezra Enyimba Aktiv 102 / 91 40% 1 30.10.2027 -
Elion Krosa Odd Aktiv 102 / 90 40% 1 29.10.2027 -
Kevin Angulo America de Cali Verloren 98 / 107 40% 2 23.10.2027 -
Gabriel Sánchez Rosario Central Aktiv 100 / 103 40% 1 22.10.2027 -
Axel Pedrozo Almagro Aktiv 75 / 78 40% 1 22.10.2027 -
Thiago Szkaluba Korona Aktiv 83 / 92 40% 1 21.10.2027 -
Nicolás Azambuja Cádiz Aktiv 131 / 138 40% 1 20.10.2027 -
Samuel Posada Leones Aktiv 78 / 96 40% 1 18.10.2027 -
Egor Yuschenko Volna Pinsk Aktiv 91 / 86 40% 1 16.10.2027 -
Seymour Reid New York City Aktiv 82 / 119 40% 4 15.10.2027 -
Timofey Simanenka Gomel Aktiv 92 / 88 40% 2 26.09.2027 -
Fidel Tourn Albion Aktiv 79 / 91 40% 1 24.09.2027 -
Zannetos Savva Albirex Niigata Aktiv 106 / 92 40% 1 24.09.2027 -
Rodrigo Fernández Alvarado Aktiv 87 / 80 40% 1 20.09.2027 -
Diego Robles Union Espanola Aktiv 87 / 88 40% 1 16.09.2027 -
Carlos da Rosa Cerro Aktiv 83 / 93 40% 1 14.09.2027 -
Samuel Peréa Bogota Aktiv 93 / 92 40% 1 13.09.2027 -
Edwin Echeverría Atletico Nacional Aktiv 85 / 81 40% 1 12.09.2027 -
Felipe Barrenechea Liverpool Montevideo Aktiv 88 / 94 40% 1 11.09.2027 -
Mikhail Alexandrov Dinamo Brest Aktiv 103 / 75 40% 1 07.09.2027 -
Gabriel Mujica Envigado Aktiv 93 / 99 40% 1 07.09.2027 -
Juan Rodríguez Wanderers Aktiv 106 / 94 40% 1 06.09.2027 -
Marquinhos Spartak Moscow Aktiv 130 / 147 40% 3 27.05.2027 -
Yankuba Minteh Brighton Aktiv 142 / 166 40% 1 19.05.2027 -
Tristan Degreef Anderlecht Aktiv 118 / 134 40% 1 06.04.2027 -
Maksim Kireev KV Mechelen Aktiv 120 / 113 40% 1 24.03.2027 -
Ilja Vakhania Krasnodar Aktiv 137 / 107 40% 2 08.03.2027 -
Christian Krasnodar Aktiv 144 / 127 40% 1 03.03.2027 Mehr Infos nötig
Suleiman Camara Slovan Bratislava Aktiv 122 / 134 40% 1 28.02.2027 -
Siyanda Ndlovu Bloemfontein Celtic Aktiv 105 / 117 40% 1 17.02.2027 -
Danil Glebov Dinamo Moscow Aktiv 131 / 120 40% 1 11.02.2027 -
Thalente Mbatha Orlando Pirates Aktiv 119 / 102 40% 1 04.02.2027 -
Nazareno Colombo Racing Club Aktiv 118 / 120 40% 1 30.11.2026 -
Ramiro Ruiz Rodríguez Atlético Tucumán Aktiv 112 / 111 40% 3 24.11.2026 -
Brayan León Mamelodi Sundowns Aktiv 114 / 117 40% 1 24.11.2026 -
Axel Pérez NK Domzale Aktiv 118 / 105 40% 2 21.11.2026 -
Robert Mizo Ashanti Gold Aktiv 88 / 84 40% 2 17.11.2026 -
Arsen Adamov Akhmat Grozny Aktiv 111 / 127 40% 1 08.11.2026 -
Bamba Dieng Crvena Zvezda Aktiv 133 / 125 40% 1 06.11.2026 Mehr Infos nötig
Lassina Traoré Shakhtar Aktiv 116 / 103 40% 1 06.11.2026 -
Pedro Ramírez Deportivo Riestra Aktiv 109 / 127 40% 1 06.11.2026 -
Jack Currie Oxford United Aktiv 129 / 139 40% 1 02.11.2026 -
Daniel Karlsbakk Sarpsborg 08 Aktiv 131 / 134 40% 1 01.11.2026 -
Wessam Abou Ali Columbus Crew Aktiv 126 / 143 40% 2 31.10.2026 -
Dejan Joveljić Seattle Sounders Aktiv 132 / 141 40% 2 27.10.2026 -
Peter Christiansen Viking Aktiv 117 / 116 40% 1 27.10.2026 -
Sead Hakšabanović Malmo FF Aktiv 119 / 102 40% 1 26.10.2026 -
Nicolás Cordero Aldosivi Aktiv 113 / 125 40% 1 24.10.2026 -
Santiago González Tigre Aktiv 136 / 132 40% 1 18.10.2026 -
Ho-yeon Jung Minnesota United FC Aktiv 122 / 115 40% 1 18.10.2026 -
Tomás Chancalay Minnesota United FC Aktiv 141 / 109 40% 2 12.10.2026 -
Agustín Anello Philadelphia Union Aktiv 120 / 120 40% 1 12.10.2026 -
Erison Kawasaki Frontale Aktiv 119 / 150 40% 1 09.10.2026 -
Tomás González Piast Aktiv 102 / 102 40% 2 08.10.2026 -
Rafael Navarro St. Louis CITY SC Aktiv 122 / 113 40% 2 03.10.2026 -
Santiago Sala Güemes Aktiv 112 / 112 40% 1 28.09.2026 -
Nicolò Tresoldi Club Brugge Aktiv 144 / 151 40% 1 26.09.2026 -
Maximiliano Rodríguez Huachipato Aktiv 120 / 121 40% 1 19.09.2026 -
Cristian Barros Cerro Aktiv 106 / 106 40% 2 14.09.2026 -
Agustín Venezia Iquique Aktiv 104 / 98 40% 1 13.09.2026 -
Agustín Paz Progreso Aktiv 111 / 117 40% 1 13.09.2026 -
Luciano Cosentino Wanderers Aktiv 120 / 109 40% 1 10.09.2026 -
Juan David Rueda Alianza Petrolera Aktiv 106 / 104 40% 1 08.09.2026 -
Enzo Giménez Queretaro Aktiv 136 / 115 40% 1 11.08.2026 -
Sebastián Guzmán Deportes Tolima Aktiv 111 / 111 40% 1 11.08.2026 -
Ramón Juárez Club America Aktiv 127 / 150 40% 1 10.08.2026 -
Emiliano Álvarez Progreso Aktiv 111 / 118 40% 1 09.08.2026 -
Jesús Angulo Tigres Aktiv 138 / 120 40% 1 09.08.2026 -
Adonis Frías Atlas Aktiv 122 / 116 40% 2 04.08.2026 -
Axel Frugone Defensor Sporting Aktiv 122 / 127 40% 1 03.08.2026 -
Richard Ledezma Guadalajara Aktiv 138 / 142 40% 1 02.08.2026 -
Fran García Betis Aktiv 146 / 144 40% 1 02.08.2026 -